SHARK1 LBPG-LBPG
Flight info
| Callsign | SHARK1 |
|---|---|
| Flight time | N/A |
| Altitude | 10000 |
| Route | LBPG |
| Aircraft | MG29/L-V/N |
Departure
| Time | 2026-05-07 12:39 |
|---|---|
| Airport | Graf Ignatievo Air Base (LBPG) |
Arrival
| Time | N/A |
|---|---|
| Airport | Graf Ignatievo Air Base (LBPG) |
| Time | Latitude | Longitude | Altitude | Speed | Heading |
|---|---|---|---|---|---|
| 2026-05-07 12:37 | 42.29117 | 24.72966 | 646 ft | 0 kts | 255° |
| 2026-05-07 12:37 | 42.29117 | 24.72965 | 646 ft | 1 kts | 255° |
| 2026-05-07 12:37 | 42.29144 | 24.72933 | 647 ft | 11 kts | 352° |
| 2026-05-07 12:38 | 42.29217 | 24.72918 | 649 ft | 9 kts | 351° |
| 2026-05-07 12:38 | 42.29257 | 24.72882 | 649 ft | 6 kts | 291° |
| 2026-05-07 12:38 | 42.29259 | 24.72827 | 649 ft | 0 kts | 261° |
| 2026-05-07 12:39 | 42.29251 | 24.72762 | 650 ft | 52 kts | 259° |
| 2026-05-07 12:39 | 42.29064 | 24.71349 | 854 ft | 235 kts | 260° |
| 2026-05-07 12:40 | 42.28670 | 24.68410 | 2476 ft | 406 kts | 258° |
| 2026-05-07 12:40 | 42.28050 | 24.63774 | 3467 ft | 607 kts | 259° |
| 2026-05-07 12:40 | 42.27295 | 24.57602 | 4308 ft | 729 kts | 260° |
| 2026-05-07 12:40 | 42.28647 | 24.51484 | 5217 ft | 788 kts | 325° |
| 2026-05-07 12:41 | 42.33314 | 24.49894 | 3837 ft | 816 kts | 26° |
| 2026-05-07 12:41 | 42.38297 | 24.53029 | 6273 ft | 799 kts | 53° |
| 2026-05-07 12:41 | 42.36403 | 24.58979 | 5513 ft | 751 kts | 144° |
| 2026-05-07 12:41 | 42.34009 | 24.61387 | 5663 ft | 600 kts | 143° |
| 2026-05-07 12:42 | 42.33797 | 24.61611 | 5702 ft | 575 kts | 142° |
| 2026-05-07 12:42 | 42.31371 | 24.64037 | 5281 ft | 363 kts | 145° |
| 2026-05-07 12:42 | 42.28957 | 24.66344 | 2201 ft | 581 kts | 143° |
| 2026-05-07 12:42 | 42.28581 | 24.66715 | 2323 ft | 598 kts | 143° |
| 2026-05-07 12:43 | 42.26798 | 24.68498 | 2397 ft | 603 kts | 143° |
| 2026-05-07 12:44 | 42.23193 | 24.72057 | 4164 ft | 582 kts | 146° |
| 2026-05-07 12:44 | 42.20734 | 24.70631 | 4127 ft | 624 kts | 289° |
| 2026-05-07 12:44 | 42.22918 | 24.65800 | 3738 ft | 517 kts | 302° |
| 2026-05-07 12:44 | 42.25076 | 24.62520 | 3007 ft | 469 kts | 7° |
| 2026-05-07 12:45 | 42.26499 | 24.66633 | 2330 ft | 513 kts | 82° |
| 2026-05-07 12:45 | 42.26884 | 24.70461 | 2217 ft | 359 kts | 82° |
| 2026-05-07 12:45 | 42.27175 | 24.73509 | 2153 ft | 303 kts | 82° |
| 2026-05-07 12:45 | 42.27508 | 24.75932 | 1922 ft | 231 kts | 74° |
| 2026-05-07 12:46 | 42.28686 | 24.77092 | 1097 ft | 199 kts | 8° |
| 2026-05-07 12:46 | 42.30253 | 24.77077 | 749 ft | 222 kts | 351° |
| 2026-05-07 12:46 | 42.32017 | 24.76511 | 1444 ft | 298 kts | 315° |